sensor_id;sensor_type;location;lat;lon;timestamp;P1;durP1;ratioP1;P2;durP2;ratioP2
6105;SDS011;3083;51.508;7.966;2024-01-10T00:01:42;7.63;;;3.50;;
6105;SDS011;3083;51.508;7.966;2024-01-10T00:04:09;8.07;;;3.87;;
6105;SDS011;3083;51.508;7.966;2024-01-10T00:06:36;9.23;;;2.50;;
6105;SDS011;3083;51.508;7.966;2024-01-10T00:09:03;4.90;;;2.00;;
6105;SDS011;3083;51.508;7.966;2024-01-10T00:11:31;8.83;;;3.20;;
6105;SDS011;3083;51.508;7.966;2024-01-10T00:13:58;9.40;;;3.20;;
6105;SDS011;3083;51.508;7.966;2024-01-10T00:16:25;12.67;;;3.87;;
6105;SDS011;3083;51.508;7.966;2024-01-10T00:18:52;8.23;;;3.30;;
6105;SDS011;3083;51.508;7.966;2024-01-10T00:21:19;7.07;;;2.20;;
6105;SDS011;3083;51.508;7.966;2024-01-10T00:23:45;6.20;;;2.53;;
6105;SDS011;3083;51.508;7.966;2024-01-10T00:26:12;5.83;;;2.67;;
6105;SDS011;3083;51.508;7.966;2024-01-10T00:28:41;5.93;;;2.87;;
6105;SDS011;3083;51.508;7.966;2024-01-10T00:31:11;9.00;;;3.47;;
6105;SDS011;3083;51.508;7.966;2024-01-10T00:33:38;14.20;;;3.27;;
6105;SDS011;3083;51.508;7.966;2024-01-10T00:36:05;7.00;;;2.87;;
6105;SDS011;3083;51.508;7.966;2024-01-10T00:38:32;7.17;;;3.77;;
6105;SDS011;3083;51.508;7.966;2024-01-10T00:40:59;9.63;;;2.97;;
6105;SDS011;3083;51.508;7.966;2024-01-10T00:43:26;11.37;;;4.07;;
6105;SDS011;3083;51.508;7.966;2024-01-10T00:45:54;8.80;;;3.57;;
6105;SDS011;3083;51.508;7.966;2024-01-10T00:48:21;8.47;;;3.27;;
6105;SDS011;3083;51.508;7.966;2024-01-10T00:50:48;10.27;;;3.20;;
6105;SDS011;3083;51.508;7.966;2024-01-10T00:53:14;9.10;;;3.33;;
6105;SDS011;3083;51.508;7.966;2024-01-10T00:55:41;8.73;;;3.23;;
6105;SDS011;3083;51.508;7.966;2024-01-10T00:58:08;8.50;;;2.77;;
6105;SDS011;3083;51.508;7.966;2024-01-10T01:00:35;5.50;;;2.30;;
6105;SDS011;3083;51.508;7.966;2024-01-10T01:03:04;11.50;;;3.77;;
6105;SDS011;3083;51.508;7.966;2024-01-10T01:05:32;8.23;;;3.07;;
6105;SDS011;3083;51.508;7.966;2024-01-10T01:07:59;8.83;;;3.00;;
6105;SDS011;3083;51.508;7.966;2024-01-10T01:10:26;10.43;;;3.50;;
6105;SDS011;3083;51.508;7.966;2024-01-10T01:12:53;7.93;;;3.13;;
6105;SDS011;3083;51.508;7.966;2024-01-10T01:15:20;6.40;;;2.53;;
6105;SDS011;3083;51.508;7.966;2024-01-10T01:17:47;6.60;;;2.80;;
6105;SDS011;3083;51.508;7.966;2024-01-10T01:20:15;7.50;;;3.10;;
6105;SDS011;3083;51.508;7.966;2024-01-10T01:22:42;6.93;;;3.13;;
6105;SDS011;3083;51.508;7.966;2024-01-10T01:25:09;5.30;;;2.67;;
6105;SDS011;3083;51.508;7.966;2024-01-10T01:27:35;3.30;;;2.00;;
6105;SDS011;3083;51.508;7.966;2024-01-10T01:30:03;9.57;;;3.70;;
6105;SDS011;3083;51.508;7.966;2024-01-10T01:32:30;7.80;;;3.03;;
6105;SDS011;3083;51.508;7.966;2024-01-10T01:34:57;4.03;;;1.83;;
6105;SDS011;3083;51.508;7.966;2024-01-10T01:37:25;10.90;;;2.80;;
6105;SDS011;3083;51.508;7.966;2024-01-10T01:39:52;6.60;;;2.47;;
6105;SDS011;3083;51.508;7.966;2024-01-10T01:42:19;10.20;;;3.03;;
6105;SDS011;3083;51.508;7.966;2024-01-10T01:44:46;8.10;;;2.40;;
6105;SDS011;3083;51.508;7.966;2024-01-10T01:47:13;13.20;;;3.57;;
6105;SDS011;3083;51.508;7.966;2024-01-10T01:49:40;14.43;;;2.33;;
6105;SDS011;3083;51.508;7.966;2024-01-10T01:52:08;5.60;;;2.63;;
6105;SDS011;3083;51.508;7.966;2024-01-10T01:54:36;13.40;;;3.20;;
6105;SDS011;3083;51.508;7.966;2024-01-10T01:57:03;3.27;;;1.90;;
6105;SDS011;3083;51.508;7.966;2024-01-10T01:59:30;6.37;;;2.77;;
6105;SDS011;3083;51.508;7.966;2024-01-10T02:01:58;8.53;;;3.43;;
6105;SDS011;3083;51.508;7.966;2024-01-10T02:04:28;5.53;;;2.50;;
6105;SDS011;3083;51.508;7.966;2024-01-10T02:06:57;7.50;;;2.50;;
6105;SDS011;3083;51.508;7.966;2024-01-10T02:09:24;6.93;;;3.03;;
6105;SDS011;3083;51.508;7.966;2024-01-10T02:11:53;9.77;;;4.03;;
6105;SDS011;3083;51.508;7.966;2024-01-10T02:14:20;17.57;;;4.60;;
6105;SDS011;3083;51.508;7.966;2024-01-10T02:16:47;9.83;;;3.63;;
6105;SDS011;3083;51.508;7.966;2024-01-10T02:19:18;4.53;;;1.90;;
6105;SDS011;3083;51.508;7.966;2024-01-10T02:21:45;3.03;;;1.63;;
6105;SDS011;3083;51.508;7.966;2024-01-10T02:24:12;8.80;;;3.13;;
6105;SDS011;3083;51.508;7.966;2024-01-10T02:26:40;8.00;;;3.30;;
6105;SDS011;3083;51.508;7.966;2024-01-10T02:29:07;3.90;;;1.77;;
6105;SDS011;3083;51.508;7.966;2024-01-10T02:31:34;6.60;;;2.60;;
6105;SDS011;3083;51.508;7.966;2024-01-10T02:34:01;4.20;;;2.60;;
6105;SDS011;3083;51.508;7.966;2024-01-10T02:36:28;7.70;;;2.20;;
6105;SDS011;3083;51.508;7.966;2024-01-10T02:38:54;7.20;;;3.33;;
6105;SDS011;3083;51.508;7.966;2024-01-10T02:41:21;7.60;;;2.53;;
6105;SDS011;3083;51.508;7.966;2024-01-10T02:43:50;6.23;;;2.70;;
6105;SDS011;3083;51.508;7.966;2024-01-10T02:46:16;8.13;;;3.50;;
6105;SDS011;3083;51.508;7.966;2024-01-10T02:48:44;5.70;;;2.90;;
6105;SDS011;3083;51.508;7.966;2024-01-10T02:51:12;4.93;;;2.00;;
6105;SDS011;3083;51.508;7.966;2024-01-10T02:53:39;5.17;;;2.50;;
6105;SDS011;3083;51.508;7.966;2024-01-10T02:56:06;3.70;;;1.97;;
6105;SDS011;3083;51.508;7.966;2024-01-10T02:58:33;7.20;;;2.70;;
6105;SDS011;3083;51.508;7.966;2024-01-10T03:01:01;6.87;;;6.17;;
6105;SDS011;3083;51.508;7.966;2024-01-10T03:03:28;7.63;;;2.50;;
6105;SDS011;3083;51.508;7.966;2024-01-10T03:05:55;6.67;;;2.17;;
6105;SDS011;3083;51.508;7.966;2024-01-10T03:08:22;7.40;;;2.70;;
6105;SDS011;3083;51.508;7.966;2024-01-10T03:10:49;16.80;;;3.50;;
6105;SDS011;3083;51.508;7.966;2024-01-10T03:13:15;5.03;;;2.77;;
6105;SDS011;3083;51.508;7.966;2024-01-10T03:15:42;7.00;;;2.07;;
6105;SDS011;3083;51.508;7.966;2024-01-10T03:18:10;8.83;;;2.87;;
6105;SDS011;3083;51.508;7.966;2024-01-10T03:20:37;4.23;;;2.53;;
6105;SDS011;3083;51.508;7.966;2024-01-10T03:23:05;10.03;;;3.07;;
6105;SDS011;3083;51.508;7.966;2024-01-10T03:25:32;7.80;;;3.20;;
6105;SDS011;3083;51.508;7.966;2024-01-10T03:27:59;2.37;;;1.37;;
6105;SDS011;3083;51.508;7.966;2024-01-10T03:30:26;5.40;;;2.67;;
6105;SDS011;3083;51.508;7.966;2024-01-10T03:32:52;6.73;;;2.30;;
6105;SDS011;3083;51.508;7.966;2024-01-10T03:35:21;8.93;;;3.30;;
6105;SDS011;3083;51.508;7.966;2024-01-10T03:37:47;7.43;;;2.90;;
6105;SDS011;3083;51.508;7.966;2024-01-10T03:40:14;11.53;;;3.80;;
6105;SDS011;3083;51.508;7.966;2024-01-10T03:42:41;6.10;;;2.97;;
6105;SDS011;3083;51.508;7.966;2024-01-10T03:45:08;10.83;;;2.63;;
6105;SDS011;3083;51.508;7.966;2024-01-10T03:47:35;11.03;;;3.30;;
6105;SDS011;3083;51.508;7.966;2024-01-10T03:50:02;8.53;;;3.63;;
6105;SDS011;3083;51.508;7.966;2024-01-10T03:52:31;4.33;;;2.33;;
6105;SDS011;3083;51.508;7.966;2024-01-10T03:54:58;8.17;;;3.30;;
6105;SDS011;3083;51.508;7.966;2024-01-10T03:57:24;7.70;;;3.90;;
6105;SDS011;3083;51.508;7.966;2024-01-10T03:59:51;6.10;;;3.10;;
6105;SDS011;3083;51.508;7.966;2024-01-10T04:02:18;5.13;;;1.93;;
6105;SDS011;3083;51.508;7.966;2024-01-10T04:04:45;6.83;;;2.53;;
6105;SDS011;3083;51.508;7.966;2024-01-10T04:07:12;6.23;;;2.67;;
6105;SDS011;3083;51.508;7.966;2024-01-10T04:09:40;6.07;;;2.60;;
6105;SDS011;3083;51.508;7.966;2024-01-10T04:12:07;7.97;;;1.93;;
6105;SDS011;3083;51.508;7.966;2024-01-10T04:14:34;13.53;;;4.40;;
6105;SDS011;3083;51.508;7.966;2024-01-10T04:17:01;10.80;;;3.33;;
6105;SDS011;3083;51.508;7.966;2024-01-10T04:19:30;10.83;;;4.17;;
6105;SDS011;3083;51.508;7.966;2024-01-10T04:21:56;13.03;;;2.80;;
6105;SDS011;3083;51.508;7.966;2024-01-10T04:24:23;7.07;;;3.07;;
6105;SDS011;3083;51.508;7.966;2024-01-10T04:26:51;15.20;;;4.87;;
6105;SDS011;3083;51.508;7.966;2024-01-10T04:29:18;12.50;;;3.97;;
6105;SDS011;3083;51.508;7.966;2024-01-10T04:31:45;6.07;;;3.40;;
6105;SDS011;3083;51.508;7.966;2024-01-10T04:34:12;4.90;;;2.20;;
6105;SDS011;3083;51.508;7.966;2024-01-10T04:36:39;5.87;;;3.17;;
6105;SDS011;3083;51.508;7.966;2024-01-10T04:39:05;6.50;;;2.83;;
6105;SDS011;3083;51.508;7.966;2024-01-10T04:41:32;4.93;;;2.47;;
6105;SDS011;3083;51.508;7.966;2024-01-10T04:44:00;8.73;;;3.70;;
6105;SDS011;3083;51.508;7.966;2024-01-10T04:46:27;11.87;;;4.20;;
6105;SDS011;3083;51.508;7.966;2024-01-10T04:48:54;12.30;;;3.13;;
6105;SDS011;3083;51.508;7.966;2024-01-10T04:51:21;10.90;;;3.93;;
6105;SDS011;3083;51.508;7.966;2024-01-10T04:53:48;9.13;;;3.33;;
6105;SDS011;3083;51.508;7.966;2024-01-10T04:56:15;10.17;;;3.50;;
6105;SDS011;3083;51.508;7.966;2024-01-10T04:58:41;4.23;;;2.77;;
6105;SDS011;3083;51.508;7.966;2024-01-10T05:01:10;3.50;;;2.00;;
6105;SDS011;3083;51.508;7.966;2024-01-10T05:03:37;8.10;;;3.20;;
6105;SDS011;3083;51.508;7.966;2024-01-10T05:06:04;6.57;;;2.70;;
6105;SDS011;3083;51.508;7.966;2024-01-10T05:08:31;11.60;;;4.23;;
6105;SDS011;3083;51.508;7.966;2024-01-10T05:10:58;12.63;;;3.57;;
6105;SDS011;3083;51.508;7.966;2024-01-10T05:13:25;9.13;;;4.10;;
6105;SDS011;3083;51.508;7.966;2024-01-10T05:15:51;6.50;;;4.13;;
6105;SDS011;3083;51.508;7.966;2024-01-10T05:18:21;10.30;;;5.73;;
6105;SDS011;3083;51.508;7.966;2024-01-10T05:20:47;10.80;;;3.90;;
6105;SDS011;3083;51.508;7.966;2024-01-10T05:23:15;11.40;;;3.60;;
6105;SDS011;3083;51.508;7.966;2024-01-10T05:25:41;8.53;;;3.90;;
6105;SDS011;3083;51.508;7.966;2024-01-10T05:28:08;18.20;;;5.27;;
6105;SDS011;3083;51.508;7.966;2024-01-10T05:30:35;15.93;;;6.10;;
6105;SDS011;3083;51.508;7.966;2024-01-10T05:33:02;14.83;;;4.40;;
6105;SDS011;3083;51.508;7.966;2024-01-10T05:35:30;5.97;;;1.97;;
6105;SDS011;3083;51.508;7.966;2024-01-10T05:37:57;8.67;;;3.77;;
6105;SDS011;3083;51.508;7.966;2024-01-10T05:40:24;10.37;;;3.43;;
6105;SDS011;3083;51.508;7.966;2024-01-10T05:42:52;13.40;;;4.90;;
6105;SDS011;3083;51.508;7.966;2024-01-10T05:45:19;6.63;;;3.30;;
6105;SDS011;3083;51.508;7.966;2024-01-10T05:47:46;7.50;;;3.03;;
6105;SDS011;3083;51.508;7.966;2024-01-10T05:50:13;7.20;;;3.80;;
6105;SDS011;3083;51.508;7.966;2024-01-10T05:52:41;5.23;;;2.23;;
6105;SDS011;3083;51.508;7.966;2024-01-10T05:55:09;5.27;;;2.70;;
6105;SDS011;3083;51.508;7.966;2024-01-10T05:57:35;3.60;;;2.40;;
6105;SDS011;3083;51.508;7.966;2024-01-10T06:00:03;12.90;;;4.70;;
6105;SDS011;3083;51.508;7.966;2024-01-10T06:02:34;9.10;;;2.30;;
6105;SDS011;3083;51.508;7.966;2024-01-10T06:05:04;6.50;;;2.50;;
6105;SDS011;3083;51.508;7.966;2024-01-10T06:07:32;14.13;;;5.67;;
6105;SDS011;3083;51.508;7.966;2024-01-10T06:10:00;14.40;;;6.10;;
6105;SDS011;3083;51.508;7.966;2024-01-10T06:12:27;8.17;;;3.87;;
6105;SDS011;3083;51.508;7.966;2024-01-10T06:14:54;4.27;;;2.73;;
6105;SDS011;3083;51.508;7.966;2024-01-10T06:17:21;16.97;;;4.13;;
6105;SDS011;3083;51.508;7.966;2024-01-10T06:19:49;14.23;;;4.03;;
6105;SDS011;3083;51.508;7.966;2024-01-10T06:22:16;9.90;;;3.97;;
6105;SDS011;3083;51.508;7.966;2024-01-10T06:24:43;12.30;;;4.60;;
6105;SDS011;3083;51.508;7.966;2024-01-10T06:27:11;6.90;;;4.43;;
6105;SDS011;3083;51.508;7.966;2024-01-10T06:29:38;8.30;;;3.60;;
6105;SDS011;3083;51.508;7.966;2024-01-10T06:32:05;9.90;;;4.23;;
6105;SDS011;3083;51.508;7.966;2024-01-10T06:34:32;11.90;;;4.80;;
6105;SDS011;3083;51.508;7.966;2024-01-10T06:36:59;12.40;;;5.27;;
6105;SDS011;3083;51.508;7.966;2024-01-10T06:39:26;7.30;;;3.10;;
6105;SDS011;3083;51.508;7.966;2024-01-10T06:41:53;9.93;;;3.80;;
6105;SDS011;3083;51.508;7.966;2024-01-10T06:44:22;13.80;;;4.60;;
6105;SDS011;3083;51.508;7.966;2024-01-10T06:46:48;7.70;;;2.80;;
6105;SDS011;3083;51.508;7.966;2024-01-10T06:49:15;16.30;;;6.00;;
6105;SDS011;3083;51.508;7.966;2024-01-10T06:51:42;10.37;;;4.10;;
6105;SDS011;3083;51.508;7.966;2024-01-10T06:54:09;9.90;;;4.53;;
6105;SDS011;3083;51.508;7.966;2024-01-10T06:56:36;10.13;;;3.77;;
6105;SDS011;3083;51.508;7.966;2024-01-10T06:59:03;11.63;;;4.67;;
6105;SDS011;3083;51.508;7.966;2024-01-10T07:01:31;5.20;;;2.70;;
6105;SDS011;3083;51.508;7.966;2024-01-10T07:03:58;5.60;;;3.20;;
6105;SDS011;3083;51.508;7.966;2024-01-10T07:06:25;6.20;;;2.23;;
6105;SDS011;3083;51.508;7.966;2024-01-10T07:08:52;16.13;;;5.83;;
6105;SDS011;3083;51.508;7.966;2024-01-10T07:11:19;12.80;;;4.47;;
6105;SDS011;3083;51.508;7.966;2024-01-10T07:13:46;7.80;;;4.23;;
6105;SDS011;3083;51.508;7.966;2024-01-10T07:16:13;7.73;;;4.40;;
6105;SDS011;3083;51.508;7.966;2024-01-10T07:18:42;5.83;;;3.07;;
6105;SDS011;3083;51.508;7.966;2024-01-10T07:21:10;18.47;;;5.60;;
6105;SDS011;3083;51.508;7.966;2024-01-10T07:23:37;4.67;;;2.10;;
6105;SDS011;3083;51.508;7.966;2024-01-10T07:26:05;11.83;;;4.67;;
6105;SDS011;3083;51.508;7.966;2024-01-10T07:28:32;13.10;;;3.50;;
6105;SDS011;3083;51.508;7.966;2024-01-10T07:30:59;10.63;;;4.50;;
6105;SDS011;3083;51.508;7.966;2024-01-10T07:33:27;14.90;;;6.13;;
6105;SDS011;3083;51.508;7.966;2024-01-10T07:35:56;10.63;;;4.77;;
6105;SDS011;3083;51.508;7.966;2024-01-10T07:38:23;13.27;;;4.00;;
6105;SDS011;3083;51.508;7.966;2024-01-10T07:40:50;8.13;;;4.47;;
6105;SDS011;3083;51.508;7.966;2024-01-10T07:43:17;19.70;;;6.50;;
6105;SDS011;3083;51.508;7.966;2024-01-10T07:45:44;14.83;;;6.30;;
6105;SDS011;3083;51.508;7.966;2024-01-10T07:48:10;15.07;;;6.13;;
6105;SDS011;3083;51.508;7.966;2024-01-10T07:50:37;8.10;;;2.70;;
6105;SDS011;3083;51.508;7.966;2024-01-10T07:53:05;18.13;;;6.70;;
6105;SDS011;3083;51.508;7.966;2024-01-10T07:55:33;8.57;;;4.10;;
6105;SDS011;3083;51.508;7.966;2024-01-10T07:57:59;15.93;;;4.80;;
6105;SDS011;3083;51.508;7.966;2024-01-10T08:00:26;20.23;;;7.47;;
6105;SDS011;3083;51.508;7.966;2024-01-10T08:02:55;7.77;;;3.03;;
6105;SDS011;3083;51.508;7.966;2024-01-10T08:05:23;14.40;;;5.70;;
6105;SDS011;3083;51.508;7.966;2024-01-10T08:07:50;16.93;;;6.70;;
6105;SDS011;3083;51.508;7.966;2024-01-10T08:10:18;14.50;;;7.17;;
6105;SDS011;3083;51.508;7.966;2024-01-10T08:12:45;10.40;;;5.67;;
6105;SDS011;3083;51.508;7.966;2024-01-10T08:15:12;11.33;;;5.47;;
6105;SDS011;3083;51.508;7.966;2024-01-10T08:17:39;19.13;;;7.87;;
6105;SDS011;3083;51.508;7.966;2024-01-10T08:20:06;14.40;;;6.60;;
6105;SDS011;3083;51.508;7.966;2024-01-10T08:22:35;17.90;;;7.77;;
6105;SDS011;3083;51.508;7.966;2024-01-10T08:25:02;26.80;;;8.83;;
6105;SDS011;3083;51.508;7.966;2024-01-10T08:27:31;20.83;;;7.23;;
6105;SDS011;3083;51.508;7.966;2024-01-10T08:29:58;9.73;;;4.70;;
6105;SDS011;3083;51.508;7.966;2024-01-10T08:32:25;18.87;;;6.33;;
6105;SDS011;3083;51.508;7.966;2024-01-10T08:34:52;15.13;;;5.00;;
6105;SDS011;3083;51.508;7.966;2024-01-10T08:37:19;24.40;;;5.70;;
6105;SDS011;3083;51.508;7.966;2024-01-10T08:39:46;20.40;;;7.33;;
6105;SDS011;3083;51.508;7.966;2024-01-10T08:42:15;29.23;;;6.30;;
6105;SDS011;3083;51.508;7.966;2024-01-10T08:44:43;17.17;;;7.03;;
6105;SDS011;3083;51.508;7.966;2024-01-10T08:47:10;14.13;;;6.10;;
6105;SDS011;3083;51.508;7.966;2024-01-10T08:49:37;14.47;;;5.67;;
6105;SDS011;3083;51.508;7.966;2024-01-10T08:52:04;19.70;;;7.60;;
6105;SDS011;3083;51.508;7.966;2024-01-10T08:54:31;21.13;;;7.63;;
6105;SDS011;3083;51.508;7.966;2024-01-10T08:56:58;18.80;;;8.13;;
6105;SDS011;3083;51.508;7.966;2024-01-10T08:59:25;23.00;;;9.20;;
6105;SDS011;3083;51.508;7.966;2024-01-10T09:01:54;14.07;;;6.03;;
6105;SDS011;3083;51.508;7.966;2024-01-10T09:04:21;17.80;;;6.40;;
6105;SDS011;3083;51.508;7.966;2024-01-10T09:06:50;15.17;;;6.40;;
6105;SDS011;3083;51.508;7.966;2024-01-10T09:09:17;22.20;;;6.77;;
6105;SDS011;3083;51.508;7.966;2024-01-10T09:11:45;25.97;;;9.50;;
6105;SDS011;3083;51.508;7.966;2024-01-10T09:14:13;18.03;;;6.97;;
6105;SDS011;3083;51.508;7.966;2024-01-10T09:16:39;26.20;;;8.30;;
6105;SDS011;3083;51.508;7.966;2024-01-10T09:19:08;17.20;;;5.60;;
6105;SDS011;3083;51.508;7.966;2024-01-10T09:21:34;25.90;;;11.07;;
6105;SDS011;3083;51.508;7.966;2024-01-10T09:24:01;21.17;;;9.30;;
6105;SDS011;3083;51.508;7.966;2024-01-10T09:26:33;25.07;;;10.60;;
6105;SDS011;3083;51.508;7.966;2024-01-10T09:29:00;23.60;;;9.33;;
6105;SDS011;3083;51.508;7.966;2024-01-10T09:31:27;15.97;;;7.00;;
6105;SDS011;3083;51.508;7.966;2024-01-10T09:33:53;24.53;;;8.33;;
6105;SDS011;3083;51.508;7.966;2024-01-10T09:36:22;23.93;;;8.60;;
6105;SDS011;3083;51.508;7.966;2024-01-10T09:38:48;24.00;;;8.57;;
6105;SDS011;3083;51.508;7.966;2024-01-10T09:41:15;27.03;;;9.77;;
6105;SDS011;3083;51.508;7.966;2024-01-10T09:43:43;20.40;;;7.23;;
6105;SDS011;3083;51.508;7.966;2024-01-10T09:46:10;22.60;;;10.53;;
6105;SDS011;3083;51.508;7.966;2024-01-10T09:48:37;26.30;;;8.50;;
6105;SDS011;3083;51.508;7.966;2024-01-10T09:51:04;24.07;;;8.70;;
6105;SDS011;3083;51.508;7.966;2024-01-10T09:53:34;25.00;;;8.10;;
6105;SDS011;3083;51.508;7.966;2024-01-10T09:56:07;28.60;;;7.70;;
6105;SDS011;3083;51.508;7.966;2024-01-10T09:58:35;23.23;;;10.23;;
6105;SDS011;3083;51.508;7.966;2024-01-10T10:01:04;19.93;;;7.63;;
6105;SDS011;3083;51.508;7.966;2024-01-10T10:03:32;23.70;;;8.07;;
6105;SDS011;3083;51.508;7.966;2024-01-10T10:06:04;23.70;;;9.63;;
6105;SDS011;3083;51.508;7.966;2024-01-10T10:08:30;21.80;;;8.50;;
6105;SDS011;3083;51.508;7.966;2024-01-10T10:10:59;21.67;;;9.30;;
6105;SDS011;3083;51.508;7.966;2024-01-10T10:13:26;19.67;;;8.00;;
6105;SDS011;3083;51.508;7.966;2024-01-10T10:15:57;23.97;;;8.87;;
6105;SDS011;3083;51.508;7.966;2024-01-10T10:18:25;30.80;;;9.37;;
6105;SDS011;3083;51.508;7.966;2024-01-10T10:21:05;20.90;;;8.20;;
6105;SDS011;3083;51.508;7.966;2024-01-10T10:23:35;23.20;;;8.80;;
6105;SDS011;3083;51.508;7.966;2024-01-10T10:26:15;28.90;;;9.20;;
6105;SDS011;3083;51.508;7.966;2024-01-10T10:28:46;25.97;;;9.60;;
6105;SDS011;3083;51.508;7.966;2024-01-10T10:31:13;31.30;;;10.40;;
6105;SDS011;3083;51.508;7.966;2024-01-10T10:33:41;28.73;;;9.67;;
6105;SDS011;3083;51.508;7.966;2024-01-10T10:36:09;22.27;;;10.30;;
6105;SDS011;3083;51.508;7.966;2024-01-10T10:38:37;25.17;;;9.27;;
6105;SDS011;3083;51.508;7.966;2024-01-10T10:41:05;35.13;;;10.93;;
6105;SDS011;3083;51.508;7.966;2024-01-10T10:43:35;23.50;;;9.20;;
6105;SDS011;3083;51.508;7.966;2024-01-10T10:46:03;28.37;;;10.60;;
6105;SDS011;3083;51.508;7.966;2024-01-10T10:48:32;31.57;;;10.67;;
6105;SDS011;3083;51.508;7.966;2024-01-10T10:51:03;29.80;;;10.47;;
6105;SDS011;3083;51.508;7.966;2024-01-10T10:53:31;31.60;;;10.13;;
6105;SDS011;3083;51.508;7.966;2024-01-10T10:56:02;33.50;;;11.27;;
6105;SDS011;3083;51.508;7.966;2024-01-10T10:58:30;19.57;;;8.43;;
6105;SDS011;3083;51.508;7.966;2024-01-10T11:01:01;25.40;;;10.90;;
6105;SDS011;3083;51.508;7.966;2024-01-10T11:03:31;33.50;;;10.27;;
6105;SDS011;3083;51.508;7.966;2024-01-10T11:06:01;23.87;;;9.40;;
6105;SDS011;3083;51.508;7.966;2024-01-10T11:08:27;29.70;;;11.60;;
6105;SDS011;3083;51.508;7.966;2024-01-10T11:10:56;19.47;;;8.50;;
6105;SDS011;3083;51.508;7.966;2024-01-10T11:13:27;23.60;;;10.87;;
6105;SDS011;3083;51.508;7.966;2024-01-10T11:16:05;28.03;;;10.73;;
6105;SDS011;3083;51.508;7.966;2024-01-10T11:18:57;31.70;;;11.40;;
6105;SDS011;3083;51.508;7.966;2024-01-10T11:21:39;26.63;;;9.50;;
6105;SDS011;3083;51.508;7.966;2024-01-10T11:24:16;23.57;;;9.80;;
6105;SDS011;3083;51.508;7.966;2024-01-10T11:26:45;32.43;;;10.90;;
6105;SDS011;3083;51.508;7.966;2024-01-10T11:29:14;24.87;;;10.57;;
6105;SDS011;3083;51.508;7.966;2024-01-10T11:31:43;26.43;;;10.17;;
6105;SDS011;3083;51.508;7.966;2024-01-10T11:34:22;23.23;;;10.47;;
6105;SDS011;3083;51.508;7.966;2024-01-10T11:39:40;27.90;;;10.30;;
6105;SDS011;3083;51.508;7.966;2024-01-10T11:42:07;27.33;;;11.50;;
6105;SDS011;3083;51.508;7.966;2024-01-10T11:44:39;26.27;;;9.73;;
6105;SDS011;3083;51.508;7.966;2024-01-10T11:47:14;28.97;;;11.63;;
6105;SDS011;3083;51.508;7.966;2024-01-10T11:49:53;26.30;;;10.83;;
6105;SDS011;3083;51.508;7.966;2024-01-10T11:52:21;34.13;;;11.07;;
6105;SDS011;3083;51.508;7.966;2024-01-10T11:54:48;22.40;;;9.60;;
6105;SDS011;3083;51.508;7.966;2024-01-10T11:57:19;27.77;;;11.43;;
6105;SDS011;3083;51.508;7.966;2024-01-10T11:59:49;22.57;;;9.00;;
6105;SDS011;3083;51.508;7.966;2024-01-10T12:02:17;22.03;;;9.27;;
6105;SDS011;3083;51.508;7.966;2024-01-10T12:04:45;27.20;;;10.03;;
6105;SDS011;3083;51.508;7.966;2024-01-10T12:07:12;13.50;;;5.67;;
6105;SDS011;3083;51.508;7.966;2024-01-10T12:09:39;24.87;;;9.50;;
6105;SDS011;3083;51.508;7.966;2024-01-10T12:12:07;25.23;;;9.93;;
6105;SDS011;3083;51.508;7.966;2024-01-10T12:14:34;26.77;;;9.83;;
6105;SDS011;3083;51.508;7.966;2024-01-10T12:17:03;20.57;;;8.87;;
6105;SDS011;3083;51.508;7.966;2024-01-10T12:19:33;24.60;;;7.57;;
6105;SDS011;3083;51.508;7.966;2024-01-10T12:22:00;23.80;;;7.93;;
6105;SDS011;3083;51.508;7.966;2024-01-10T12:24:27;28.40;;;9.23;;
6105;SDS011;3083;51.508;7.966;2024-01-10T12:26:55;23.43;;;10.27;;
6105;SDS011;3083;51.508;7.966;2024-01-10T12:29:22;21.80;;;7.63;;
6105;SDS011;3083;51.508;7.966;2024-01-10T12:31:50;25.17;;;10.80;;
6105;SDS011;3083;51.508;7.966;2024-01-10T12:34:18;20.20;;;8.60;;
6105;SDS011;3083;51.508;7.966;2024-01-10T12:36:46;20.00;;;8.67;;
6105;SDS011;3083;51.508;7.966;2024-01-10T12:39:14;23.70;;;9.10;;
6105;SDS011;3083;51.508;7.966;2024-01-10T12:41:42;24.60;;;9.27;;
6105;SDS011;3083;51.508;7.966;2024-01-10T12:44:10;24.40;;;9.60;;
6105;SDS011;3083;51.508;7.966;2024-01-10T12:46:47;24.30;;;9.00;;
6105;SDS011;3083;51.508;7.966;2024-01-10T12:49:16;18.93;;;8.73;;
6105;SDS011;3083;51.508;7.966;2024-01-10T12:51:44;22.67;;;10.43;;
6105;SDS011;3083;51.508;7.966;2024-01-10T12:54:13;23.00;;;9.83;;
6105;SDS011;3083;51.508;7.966;2024-01-10T12:56:42;22.43;;;10.10;;
6105;SDS011;3083;51.508;7.966;2024-01-10T12:59:09;23.53;;;9.40;;
6105;SDS011;3083;51.508;7.966;2024-01-10T13:01:35;19.30;;;8.43;;
6105;SDS011;3083;51.508;7.966;2024-01-10T13:04:03;20.57;;;9.03;;
6105;SDS011;3083;51.508;7.966;2024-01-10T13:06:30;24.37;;;9.63;;
6105;SDS011;3083;51.508;7.966;2024-01-10T13:08:58;23.00;;;9.00;;
6105;SDS011;3083;51.508;7.966;2024-01-10T13:11:25;25.53;;;10.30;;
6105;SDS011;3083;51.508;7.966;2024-01-10T13:13:52;18.90;;;9.17;;
6105;SDS011;3083;51.508;7.966;2024-01-10T13:16:19;21.40;;;8.67;;
6105;SDS011;3083;51.508;7.966;2024-01-10T13:18:46;20.10;;;9.83;;
6105;SDS011;3083;51.508;7.966;2024-01-10T13:21:12;23.93;;;9.70;;
6105;SDS011;3083;51.508;7.966;2024-01-10T13:23:39;20.50;;;8.00;;
6105;SDS011;3083;51.508;7.966;2024-01-10T13:26:08;23.83;;;10.57;;
6105;SDS011;3083;51.508;7.966;2024-01-10T13:28:36;21.27;;;8.97;;
6105;SDS011;3083;51.508;7.966;2024-01-10T13:31:03;22.97;;;9.73;;
6105;SDS011;3083;51.508;7.966;2024-01-10T13:33:30;17.60;;;6.90;;
6105;SDS011;3083;51.508;7.966;2024-01-10T13:35:57;21.17;;;9.40;;
6105;SDS011;3083;51.508;7.966;2024-01-10T13:38:25;18.47;;;7.40;;
6105;SDS011;3083;51.508;7.966;2024-01-10T13:40:52;19.17;;;8.47;;
6105;SDS011;3083;51.508;7.966;2024-01-10T13:43:21;25.57;;;10.30;;
6105;SDS011;3083;51.508;7.966;2024-01-10T13:45:48;28.33;;;10.17;;
6105;SDS011;3083;51.508;7.966;2024-01-10T13:48:15;19.47;;;9.00;;
6105;SDS011;3083;51.508;7.966;2024-01-10T13:50:42;20.70;;;9.63;;
6105;SDS011;3083;51.508;7.966;2024-01-10T13:53:10;22.67;;;9.33;;
6105;SDS011;3083;51.508;7.966;2024-01-10T13:55:38;17.90;;;8.00;;
6105;SDS011;3083;51.508;7.966;2024-01-10T13:58:05;23.47;;;9.10;;
6105;SDS011;3083;51.508;7.966;2024-01-10T14:00:34;20.00;;;8.07;;
6105;SDS011;3083;51.508;7.966;2024-01-10T14:03:03;27.43;;;9.73;;
6105;SDS011;3083;51.508;7.966;2024-01-10T14:05:30;22.30;;;8.93;;
6105;SDS011;3083;51.508;7.966;2024-01-10T14:07:57;23.90;;;9.30;;
6105;SDS011;3083;51.508;7.966;2024-01-10T14:10:23;23.57;;;9.00;;
6105;SDS011;3083;51.508;7.966;2024-01-10T14:12:50;22.10;;;9.30;;
6105;SDS011;3083;51.508;7.966;2024-01-10T14:15:17;22.47;;;8.60;;
6105;SDS011;3083;51.508;7.966;2024-01-10T14:17:45;22.80;;;9.53;;
6105;SDS011;3083;51.508;7.966;2024-01-10T14:20:12;20.00;;;7.77;;
6105;SDS011;3083;51.508;7.966;2024-01-10T14:22:39;16.80;;;7.20;;
6105;SDS011;3083;51.508;7.966;2024-01-10T14:25:08;19.60;;;8.77;;
6105;SDS011;3083;51.508;7.966;2024-01-10T14:27:36;17.60;;;7.90;;
6105;SDS011;3083;51.508;7.966;2024-01-10T14:30:05;18.73;;;7.90;;
6105;SDS011;3083;51.508;7.966;2024-01-10T14:32:35;22.37;;;8.30;;
6105;SDS011;3083;51.508;7.966;2024-01-10T14:35:04;23.57;;;8.90;;
6105;SDS011;3083;51.508;7.966;2024-01-10T14:37:31;20.17;;;8.73;;
6105;SDS011;3083;51.508;7.966;2024-01-10T14:40:00;23.50;;;9.10;;
6105;SDS011;3083;51.508;7.966;2024-01-10T14:42:27;14.97;;;7.67;;
6105;SDS011;3083;51.508;7.966;2024-01-10T14:44:54;22.03;;;8.10;;
6105;SDS011;3083;51.508;7.966;2024-01-10T14:47:21;20.73;;;8.80;;
6105;SDS011;3083;51.508;7.966;2024-01-10T14:49:48;23.50;;;8.77;;
6105;SDS011;3083;51.508;7.966;2024-01-10T14:52:17;24.87;;;9.13;;
6105;SDS011;3083;51.508;7.966;2024-01-10T14:54:43;22.00;;;8.13;;
6105;SDS011;3083;51.508;7.966;2024-01-10T14:57:10;22.57;;;9.30;;
6105;SDS011;3083;51.508;7.966;2024-01-10T14:59:39;24.00;;;9.20;;
6105;SDS011;3083;51.508;7.966;2024-01-10T15:02:06;25.43;;;9.43;;
6105;SDS011;3083;51.508;7.966;2024-01-10T15:04:36;26.57;;;9.60;;
6105;SDS011;3083;51.508;7.966;2024-01-10T15:07:03;21.27;;;8.13;;
6105;SDS011;3083;51.508;7.966;2024-01-10T15:09:32;32.10;;;9.47;;
6105;SDS011;3083;51.508;7.966;2024-01-10T15:12:01;22.00;;;9.77;;